sensor_id;sensor_type;location;lat;lon;timestamp;P1;durP1;ratioP1;P2;durP2;ratioP2
9413;SDS011;4746;35.664;139.738;2024-03-02T00:01:49;0.97;;;0.97;;
9413;SDS011;4746;35.664;139.738;2024-03-02T00:04:16;0.90;;;0.90;;
9413;SDS011;4746;35.664;139.738;2024-03-02T00:06:44;0.90;;;0.90;;
9413;SDS011;4746;35.664;139.738;2024-03-02T00:09:11;1.17;;;1.17;;
9413;SDS011;4746;35.664;139.738;2024-03-02T00:11:41;1.20;;;1.10;;
9413;SDS011;4746;35.664;139.738;2024-03-02T00:14:09;1.10;;;1.00;;
9413;SDS011;4746;35.664;139.738;2024-03-02T00:16:37;0.90;;;0.90;;
9413;SDS011;4746;35.664;139.738;2024-03-02T00:19:08;0.90;;;0.90;;
9413;SDS011;4746;35.664;139.738;2024-03-02T00:21:36;1.63;;;1.43;;
9413;SDS011;4746;35.664;139.738;2024-03-02T00:24:28;0.90;;;0.90;;
9413;SDS011;4746;35.664;139.738;2024-03-02T00:27:01;1.17;;;1.10;;
9413;SDS011;4746;35.664;139.738;2024-03-02T00:29:36;0.80;;;0.80;;
9413;SDS011;4746;35.664;139.738;2024-03-02T00:32:10;0.90;;;0.90;;
9413;SDS011;4746;35.664;139.738;2024-03-02T00:34:42;1.20;;;1.10;;
9413;SDS011;4746;35.664;139.738;2024-03-02T00:37:10;1.17;;;1.17;;
9413;SDS011;4746;35.664;139.738;2024-03-02T00:39:41;1.10;;;1.10;;
9413;SDS011;4746;35.664;139.738;2024-03-02T00:42:09;0.97;;;0.97;;
9413;SDS011;4746;35.664;139.738;2024-03-02T00:44:38;1.20;;;1.10;;
9413;SDS011;4746;35.664;139.738;2024-03-02T00:47:06;1.17;;;1.10;;
9413;SDS011;4746;35.664;139.738;2024-03-02T00:49:34;1.73;;;1.40;;
9413;SDS011;4746;35.664;139.738;2024-03-02T00:52:02;0.80;;;0.80;;
9413;SDS011;4746;35.664;139.738;2024-03-02T00:54:51;1.13;;;1.03;;
9413;SDS011;4746;35.664;139.738;2024-03-02T00:57:33;1.23;;;1.10;;
9413;SDS011;4746;35.664;139.738;2024-03-02T01:00:14;0.80;;;0.80;;
9413;SDS011;4746;35.664;139.738;2024-03-02T01:02:55;1.20;;;1.20;;
9413;SDS011;4746;35.664;139.738;2024-03-02T01:05:23;1.40;;;1.20;;
9413;SDS011;4746;35.664;139.738;2024-03-02T01:07:50;2.47;;;1.17;;
9413;SDS011;4746;35.664;139.738;2024-03-02T01:10:18;1.33;;;1.23;;
9413;SDS011;4746;35.664;139.738;2024-03-02T01:12:48;1.13;;;1.13;;
9413;SDS011;4746;35.664;139.738;2024-03-02T01:15:16;1.10;;;1.00;;
9413;SDS011;4746;35.664;139.738;2024-03-02T01:18:28;1.33;;;1.17;;
9413;SDS011;4746;35.664;139.738;2024-03-02T01:20:56;0.80;;;0.80;;
9413;SDS011;4746;35.664;139.738;2024-03-02T01:23:24;1.30;;;1.17;;
9413;SDS011;4746;35.664;139.738;2024-03-02T01:25:52;1.87;;;1.20;;
9413;SDS011;4746;35.664;139.738;2024-03-02T01:28:20;1.20;;;1.10;;
9413;SDS011;4746;35.664;139.738;2024-03-02T01:30:48;1.50;;;1.40;;
9413;SDS011;4746;35.664;139.738;2024-03-02T01:33:16;0.97;;;0.97;;
9413;SDS011;4746;35.664;139.738;2024-03-02T01:35:45;1.57;;;1.20;;
9413;SDS011;4746;35.664;139.738;2024-03-02T01:38:13;1.40;;;1.30;;
9413;SDS011;4746;35.664;139.738;2024-03-02T01:40:40;1.23;;;1.23;;
9413;SDS011;4746;35.664;139.738;2024-03-02T01:43:12;1.03;;;1.00;;
9413;SDS011;4746;35.664;139.738;2024-03-02T01:45:40;1.23;;;1.23;;
9413;SDS011;4746;35.664;139.738;2024-03-02T01:48:09;1.13;;;1.10;;
9413;SDS011;4746;35.664;139.738;2024-03-02T01:50:36;1.43;;;1.20;;
9413;SDS011;4746;35.664;139.738;2024-03-02T01:53:04;0.90;;;0.90;;
9413;SDS011;4746;35.664;139.738;2024-03-02T01:55:33;1.60;;;1.00;;
9413;SDS011;4746;35.664;139.738;2024-03-02T01:58:01;1.73;;;1.20;;
9413;SDS011;4746;35.664;139.738;2024-03-02T02:00:29;0.97;;;0.97;;
9413;SDS011;4746;35.664;139.738;2024-03-02T02:02:57;0.83;;;0.83;;
9413;SDS011;4746;35.664;139.738;2024-03-02T02:05:25;1.10;;;1.10;;
9413;SDS011;4746;35.664;139.738;2024-03-02T02:07:54;1.37;;;1.20;;
9413;SDS011;4746;35.664;139.738;2024-03-02T02:10:24;2.00;;;1.60;;
9413;SDS011;4746;35.664;139.738;2024-03-02T02:12:52;1.60;;;1.00;;
9413;SDS011;4746;35.664;139.738;2024-03-02T02:15:30;1.40;;;1.30;;
9413;SDS011;4746;35.664;139.738;2024-03-02T02:18:02;0.87;;;0.87;;
9413;SDS011;4746;35.664;139.738;2024-03-02T02:20:34;1.20;;;1.10;;
9413;SDS011;4746;35.664;139.738;2024-03-02T02:23:03;0.93;;;0.93;;
9413;SDS011;4746;35.664;139.738;2024-03-02T02:25:33;1.13;;;1.03;;
9413;SDS011;4746;35.664;139.738;2024-03-02T02:28:01;1.73;;;1.47;;
9413;SDS011;4746;35.664;139.738;2024-03-02T02:30:29;1.80;;;1.20;;
9413;SDS011;4746;35.664;139.738;2024-03-02T02:32:58;0.97;;;0.97;;
9413;SDS011;4746;35.664;139.738;2024-03-02T02:35:26;0.90;;;0.90;;
9413;SDS011;4746;35.664;139.738;2024-03-02T02:37:55;0.97;;;0.93;;
9413;SDS011;4746;35.664;139.738;2024-03-02T02:40:27;1.17;;;0.90;;
9413;SDS011;4746;35.664;139.738;2024-03-02T02:42:57;1.10;;;0.90;;
9413;SDS011;4746;35.664;139.738;2024-03-02T02:45:26;0.80;;;0.80;;
9413;SDS011;4746;35.664;139.738;2024-03-02T02:47:53;1.03;;;1.00;;
9413;SDS011;4746;35.664;139.738;2024-03-02T02:50:23;0.90;;;0.90;;
9413;SDS011;4746;35.664;139.738;2024-03-02T02:52:50;1.10;;;1.00;;
9413;SDS011;4746;35.664;139.738;2024-03-02T02:55:18;1.10;;;1.00;;
9413;SDS011;4746;35.664;139.738;2024-03-02T02:57:46;1.53;;;1.17;;
9413;SDS011;4746;35.664;139.738;2024-03-02T03:00:14;1.57;;;1.20;;
9413;SDS011;4746;35.664;139.738;2024-03-02T03:02:46;0.97;;;0.97;;
9413;SDS011;4746;35.664;139.738;2024-03-02T03:05:15;1.20;;;1.10;;
9413;SDS011;4746;35.664;139.738;2024-03-02T03:07:44;2.23;;;1.33;;
9413;SDS011;4746;35.664;139.738;2024-03-02T03:10:13;1.03;;;1.00;;
9413;SDS011;4746;35.664;139.738;2024-03-02T03:12:42;1.70;;;1.10;;
9413;SDS011;4746;35.664;139.738;2024-03-02T03:15:10;1.13;;;0.90;;
9413;SDS011;4746;35.664;139.738;2024-03-02T03:17:38;1.40;;;0.83;;
9413;SDS011;4746;35.664;139.738;2024-03-02T03:20:06;1.00;;;0.90;;
9413;SDS011;4746;35.664;139.738;2024-03-02T03:22:41;0.90;;;0.90;;
9413;SDS011;4746;35.664;139.738;2024-03-02T03:25:19;0.90;;;0.90;;
9413;SDS011;4746;35.664;139.738;2024-03-02T03:27:47;1.27;;;0.87;;
9413;SDS011;4746;35.664;139.738;2024-03-02T03:30:16;1.13;;;1.03;;
9413;SDS011;4746;35.664;139.738;2024-03-02T03:32:44;1.60;;;1.27;;
9413;SDS011;4746;35.664;139.738;2024-03-02T03:35:13;1.20;;;1.10;;
9413;SDS011;4746;35.664;139.738;2024-03-02T03:37:41;1.40;;;0.93;;
9413;SDS011;4746;35.664;139.738;2024-03-02T03:40:09;1.23;;;1.00;;
9413;SDS011;4746;35.664;139.738;2024-03-02T03:42:39;0.80;;;0.80;;
9413;SDS011;4746;35.664;139.738;2024-03-02T03:45:07;2.83;;;1.50;;
9413;SDS011;4746;35.664;139.738;2024-03-02T03:47:35;1.40;;;1.30;;
9413;SDS011;4746;35.664;139.738;2024-03-02T03:50:04;2.03;;;0.90;;
9413;SDS011;4746;35.664;139.738;2024-03-02T03:52:33;1.30;;;1.20;;
9413;SDS011;4746;35.664;139.738;2024-03-02T03:55:01;1.57;;;1.20;;
9413;SDS011;4746;35.664;139.738;2024-03-02T03:57:30;1.53;;;1.43;;
9413;SDS011;4746;35.664;139.738;2024-03-02T03:59:58;2.83;;;1.30;;
9413;SDS011;4746;35.664;139.738;2024-03-02T04:02:26;1.43;;;1.33;;
9413;SDS011;4746;35.664;139.738;2024-03-02T04:04:55;1.73;;;1.63;;
9413;SDS011;4746;35.664;139.738;2024-03-02T04:07:23;1.97;;;1.43;;
9413;SDS011;4746;35.664;139.738;2024-03-02T04:09:51;1.00;;;1.00;;
9413;SDS011;4746;35.664;139.738;2024-03-02T04:12:19;1.23;;;0.93;;
9413;SDS011;4746;35.664;139.738;2024-03-02T04:14:48;1.70;;;1.00;;
9413;SDS011;4746;35.664;139.738;2024-03-02T04:17:16;1.13;;;1.00;;
9413;SDS011;4746;35.664;139.738;2024-03-02T04:19:45;0.93;;;0.87;;
9413;SDS011;4746;35.664;139.738;2024-03-02T04:22:13;1.07;;;0.90;;
9413;SDS011;4746;35.664;139.738;2024-03-02T04:24:41;1.43;;;0.83;;
9413;SDS011;4746;35.664;139.738;2024-03-02T04:27:13;0.90;;;0.90;;
9413;SDS011;4746;35.664;139.738;2024-03-02T04:29:45;0.90;;;0.90;;
9413;SDS011;4746;35.664;139.738;2024-03-02T04:32:13;1.80;;;0.97;;
9413;SDS011;4746;35.664;139.738;2024-03-02T04:34:41;1.30;;;0.97;;
9413;SDS011;4746;35.664;139.738;2024-03-02T04:37:10;0.97;;;0.90;;
9413;SDS011;4746;35.664;139.738;2024-03-02T04:39:40;1.10;;;1.00;;
9413;SDS011;4746;35.664;139.738;2024-03-02T04:42:08;1.93;;;1.20;;
9413;SDS011;4746;35.664;139.738;2024-03-02T04:44:36;2.30;;;1.30;;
9413;SDS011;4746;35.664;139.738;2024-03-02T04:47:04;1.70;;;1.40;;
9413;SDS011;4746;35.664;139.738;2024-03-02T04:49:33;2.37;;;1.30;;
9413;SDS011;4746;35.664;139.738;2024-03-02T04:52:01;3.47;;;1.30;;
9413;SDS011;4746;35.664;139.738;2024-03-02T04:54:29;1.43;;;1.00;;
9413;SDS011;4746;35.664;139.738;2024-03-02T04:57:00;1.87;;;0.97;;
9413;SDS011;4746;35.664;139.738;2024-03-02T04:59:28;1.20;;;1.20;;
9413;SDS011;4746;35.664;139.738;2024-03-02T05:01:56;1.93;;;0.90;;
9413;SDS011;4746;35.664;139.738;2024-03-02T05:04:25;1.37;;;1.20;;
9413;SDS011;4746;35.664;139.738;2024-03-02T05:06:54;1.00;;;1.00;;
9413;SDS011;4746;35.664;139.738;2024-03-02T05:09:23;1.90;;;1.20;;
9413;SDS011;4746;35.664;139.738;2024-03-02T05:11:55;1.03;;;1.03;;
9413;SDS011;4746;35.664;139.738;2024-03-02T05:14:41;2.50;;;1.60;;
9413;SDS011;4746;35.664;139.738;2024-03-02T05:17:10;0.80;;;0.80;;
9413;SDS011;4746;35.664;139.738;2024-03-02T05:19:38;1.50;;;1.07;;
9413;SDS011;4746;35.664;139.738;2024-03-02T05:22:09;1.53;;;1.00;;
9413;SDS011;4746;35.664;139.738;2024-03-02T05:24:41;1.37;;;1.27;;
9413;SDS011;4746;35.664;139.738;2024-03-02T05:27:09;0.93;;;0.93;;
9413;SDS011;4746;35.664;139.738;2024-03-02T05:29:41;1.27;;;1.20;;
9413;SDS011;4746;35.664;139.738;2024-03-02T05:32:09;3.27;;;1.03;;
9413;SDS011;4746;35.664;139.738;2024-03-02T05:34:38;1.00;;;1.00;;
9413;SDS011;4746;35.664;139.738;2024-03-02T05:37:09;1.30;;;1.20;;
9413;SDS011;4746;35.664;139.738;2024-03-02T05:39:41;1.50;;;1.03;;
9413;SDS011;4746;35.664;139.738;2024-03-02T05:42:12;1.17;;;1.10;;
9413;SDS011;4746;35.664;139.738;2024-03-02T05:44:42;1.70;;;1.20;;
9413;SDS011;4746;35.664;139.738;2024-03-02T05:47:13;1.40;;;1.30;;
9413;SDS011;4746;35.664;139.738;2024-03-02T05:49:45;1.20;;;1.20;;
9413;SDS011;4746;35.664;139.738;2024-03-02T05:52:13;1.50;;;1.17;;
9413;SDS011;4746;35.664;139.738;2024-03-02T05:54:45;1.23;;;1.13;;
9413;SDS011;4746;35.664;139.738;2024-03-02T05:57:14;1.23;;;1.00;;
9413;SDS011;4746;35.664;139.738;2024-03-02T05:59:52;1.50;;;1.30;;
9413;SDS011;4746;35.664;139.738;2024-03-02T06:02:23;1.20;;;1.10;;
9413;SDS011;4746;35.664;139.738;2024-03-02T06:04:56;1.30;;;1.20;;
9413;SDS011;4746;35.664;139.738;2024-03-02T06:07:24;1.00;;;0.90;;
9413;SDS011;4746;35.664;139.738;2024-03-02T06:09:53;1.10;;;1.00;;
9413;SDS011;4746;35.664;139.738;2024-03-02T06:12:22;1.50;;;1.10;;
9413;SDS011;4746;35.664;139.738;2024-03-02T06:14:58;1.10;;;1.10;;
9413;SDS011;4746;35.664;139.738;2024-03-02T06:17:30;3.87;;;1.10;;
9413;SDS011;4746;35.664;139.738;2024-03-02T06:20:01;1.57;;;1.20;;
9413;SDS011;4746;35.664;139.738;2024-03-02T06:22:40;1.33;;;1.10;;
9413;SDS011;4746;35.664;139.738;2024-03-02T06:25:09;2.47;;;1.10;;
9413;SDS011;4746;35.664;139.738;2024-03-02T06:27:48;1.50;;;1.40;;
9413;SDS011;4746;35.664;139.738;2024-03-02T06:30:17;1.10;;;1.00;;
9413;SDS011;4746;35.664;139.738;2024-03-02T06:32:45;1.37;;;1.17;;
9413;SDS011;4746;35.664;139.738;2024-03-02T06:35:14;1.30;;;1.20;;
9413;SDS011;4746;35.664;139.738;2024-03-02T06:37:43;0.90;;;0.90;;
9413;SDS011;4746;35.664;139.738;2024-03-02T06:40:12;1.10;;;1.10;;
9413;SDS011;4746;35.664;139.738;2024-03-02T06:42:41;3.10;;;1.30;;
9413;SDS011;4746;35.664;139.738;2024-03-02T06:45:10;1.30;;;1.20;;
9413;SDS011;4746;35.664;139.738;2024-03-02T06:47:39;2.07;;;1.20;;
9413;SDS011;4746;35.664;139.738;2024-03-02T06:50:08;1.43;;;1.10;;
9413;SDS011;4746;35.664;139.738;2024-03-02T06:52:37;1.47;;;1.00;;
9413;SDS011;4746;35.664;139.738;2024-03-02T06:55:06;1.53;;;1.13;;
9413;SDS011;4746;35.664;139.738;2024-03-02T06:57:36;1.33;;;1.23;;
9413;SDS011;4746;35.664;139.738;2024-03-02T07:00:05;1.30;;;1.10;;
9413;SDS011;4746;35.664;139.738;2024-03-02T07:02:46;1.50;;;1.00;;
9413;SDS011;4746;35.664;139.738;2024-03-02T07:05:15;0.80;;;0.80;;
9413;SDS011;4746;35.664;139.738;2024-03-02T07:07:48;1.30;;;1.20;;
9413;SDS011;4746;35.664;139.738;2024-03-02T07:10:17;1.00;;;1.00;;
9413;SDS011;4746;35.664;139.738;2024-03-02T07:12:45;1.20;;;1.10;;
9413;SDS011;4746;35.664;139.738;2024-03-02T07:15:18;1.40;;;1.30;;
9413;SDS011;4746;35.664;139.738;2024-03-02T07:18:04;1.50;;;1.30;;
9413;SDS011;4746;35.664;139.738;2024-03-02T07:20:36;1.43;;;1.00;;
9413;SDS011;4746;35.664;139.738;2024-03-02T07:23:11;1.80;;;1.13;;
9413;SDS011;4746;35.664;139.738;2024-03-02T07:25:45;3.03;;;1.10;;
9413;SDS011;4746;35.664;139.738;2024-03-02T07:28:14;1.27;;;1.17;;
9413;SDS011;4746;35.664;139.738;2024-03-02T07:30:43;1.70;;;1.30;;
9413;SDS011;4746;35.664;139.738;2024-03-02T07:33:14;1.30;;;1.20;;
9413;SDS011;4746;35.664;139.738;2024-03-02T07:35:43;1.27;;;1.17;;
9413;SDS011;4746;35.664;139.738;2024-03-02T07:38:11;1.40;;;1.30;;
9413;SDS011;4746;35.664;139.738;2024-03-02T07:40:41;1.23;;;1.07;;
9413;SDS011;4746;35.664;139.738;2024-03-02T07:43:13;1.30;;;1.20;;
9413;SDS011;4746;35.664;139.738;2024-03-02T07:45:42;2.40;;;1.23;;
9413;SDS011;4746;35.664;139.738;2024-03-02T07:48:10;1.30;;;1.20;;
9413;SDS011;4746;35.664;139.738;2024-03-02T07:50:39;1.87;;;1.30;;
9413;SDS011;4746;35.664;139.738;2024-03-02T07:53:13;1.30;;;1.20;;
9413;SDS011;4746;35.664;139.738;2024-03-02T07:55:44;1.50;;;1.40;;
9413;SDS011;4746;35.664;139.738;2024-03-02T07:58:12;1.37;;;1.27;;
9413;SDS011;4746;35.664;139.738;2024-03-02T08:00:41;1.40;;;1.20;;
9413;SDS011;4746;35.664;139.738;2024-03-02T08:03:11;1.20;;;1.10;;
9413;SDS011;4746;35.664;139.738;2024-03-02T08:05:40;2.23;;;1.20;;
9413;SDS011;4746;35.664;139.738;2024-03-02T08:08:08;2.17;;;1.63;;
9413;SDS011;4746;35.664;139.738;2024-03-02T08:10:37;1.53;;;1.13;;
9413;SDS011;4746;35.664;139.738;2024-03-02T08:13:12;1.47;;;1.20;;
9413;SDS011;4746;35.664;139.738;2024-03-02T08:15:41;1.50;;;1.30;;
9413;SDS011;4746;35.664;139.738;2024-03-02T08:18:11;1.23;;;1.13;;
9413;SDS011;4746;35.664;139.738;2024-03-02T08:20:42;0.80;;;0.80;;
9413;SDS011;4746;35.664;139.738;2024-03-02T08:23:12;1.50;;;1.07;;
9413;SDS011;4746;35.664;139.738;2024-03-02T08:25:41;2.13;;;1.27;;
9413;SDS011;4746;35.664;139.738;2024-03-02T08:28:13;1.60;;;1.50;;
9413;SDS011;4746;35.664;139.738;2024-03-02T08:30:44;1.43;;;1.00;;
9413;SDS011;4746;35.664;139.738;2024-03-02T08:33:12;1.60;;;1.27;;
9413;SDS011;4746;35.664;139.738;2024-03-02T08:35:46;1.30;;;1.03;;
9413;SDS011;4746;35.664;139.738;2024-03-02T08:38:15;2.53;;;1.43;;
9413;SDS011;4746;35.664;139.738;2024-03-02T08:40:44;1.50;;;1.40;;
9413;SDS011;4746;35.664;139.738;2024-03-02T08:43:13;1.53;;;1.40;;
9413;SDS011;4746;35.664;139.738;2024-03-02T08:45:41;3.03;;;1.97;;
9413;SDS011;4746;35.664;139.738;2024-03-02T08:48:10;1.57;;;1.40;;
9413;SDS011;4746;35.664;139.738;2024-03-02T08:50:38;2.10;;;1.87;;
9413;SDS011;4746;35.664;139.738;2024-03-02T08:53:06;1.30;;;1.20;;
9413;SDS011;4746;35.664;139.738;2024-03-02T08:55:37;1.40;;;1.30;;
9413;SDS011;4746;35.664;139.738;2024-03-02T08:58:05;2.47;;;1.57;;
9413;SDS011;4746;35.664;139.738;2024-03-02T09:00:43;2.27;;;1.40;;
9413;SDS011;4746;35.664;139.738;2024-03-02T09:03:15;1.07;;;1.07;;
9413;SDS011;4746;35.664;139.738;2024-03-02T09:05:46;1.30;;;1.20;;
9413;SDS011;4746;35.664;139.738;2024-03-02T09:08:14;1.70;;;1.07;;
9413;SDS011;4746;35.664;139.738;2024-03-02T09:10:42;1.50;;;1.20;;
9413;SDS011;4746;35.664;139.738;2024-03-02T09:13:13;1.30;;;1.20;;
9413;SDS011;4746;35.664;139.738;2024-03-02T09:15:45;1.53;;;1.20;;
9413;SDS011;4746;35.664;139.738;2024-03-02T09:18:15;2.10;;;1.30;;
9413;SDS011;4746;35.664;139.738;2024-03-02T09:20:43;1.67;;;1.20;;
9413;SDS011;4746;35.664;139.738;2024-03-02T09:23:11;1.23;;;1.10;;
9413;SDS011;4746;35.664;139.738;2024-03-02T09:25:40;1.43;;;1.33;;
9413;SDS011;4746;35.664;139.738;2024-03-02T09:28:08;1.53;;;1.30;;
9413;SDS011;4746;35.664;139.738;2024-03-02T09:30:36;1.53;;;1.40;;
9413;SDS011;4746;35.664;139.738;2024-03-02T09:33:04;1.60;;;1.07;;
9413;SDS011;4746;35.664;139.738;2024-03-02T09:35:33;1.43;;;1.20;;
9413;SDS011;4746;35.664;139.738;2024-03-02T09:38:02;2.80;;;1.60;;
9413;SDS011;4746;35.664;139.738;2024-03-02T09:40:30;2.17;;;1.57;;
9413;SDS011;4746;35.664;139.738;2024-03-02T09:42:59;4.93;;;1.50;;
9413;SDS011;4746;35.664;139.738;2024-03-02T09:45:29;1.57;;;1.47;;
9413;SDS011;4746;35.664;139.738;2024-03-02T09:47:58;1.50;;;1.40;;
9413;SDS011;4746;35.664;139.738;2024-03-02T09:50:26;1.73;;;1.40;;
9413;SDS011;4746;35.664;139.738;2024-03-02T09:52:55;3.93;;;1.90;;
9413;SDS011;4746;35.664;139.738;2024-03-02T09:55:25;2.33;;;1.60;;
9413;SDS011;4746;35.664;139.738;2024-03-02T09:57:53;1.20;;;1.17;;
9413;SDS011;4746;35.664;139.738;2024-03-02T10:00:22;3.17;;;1.20;;
9413;SDS011;4746;35.664;139.738;2024-03-02T10:02:51;3.87;;;1.17;;
9413;SDS011;4746;35.664;139.738;2024-03-02T10:05:24;1.00;;;1.00;;
9413;SDS011;4746;35.664;139.738;2024-03-02T10:08:01;1.23;;;0.90;;
9413;SDS011;4746;35.664;139.738;2024-03-02T10:10:38;2.03;;;1.50;;
9413;SDS011;4746;35.664;139.738;2024-03-02T10:13:12;1.90;;;1.57;;
9413;SDS011;4746;35.664;139.738;2024-03-02T10:15:51;1.23;;;1.13;;
9413;SDS011;4746;35.664;139.738;2024-03-02T10:18:26;1.77;;;1.13;;
9413;SDS011;4746;35.664;139.738;2024-03-02T10:21:02;1.30;;;1.20;;
9413;SDS011;4746;35.664;139.738;2024-03-02T10:23:45;1.97;;;1.50;;
9413;SDS011;4746;35.664;139.738;2024-03-02T10:26:17;2.50;;;1.13;;
9413;SDS011;4746;35.664;139.738;2024-03-02T10:28:54;1.40;;;1.30;;
9413;SDS011;4746;35.664;139.738;2024-03-02T10:31:28;1.33;;;1.30;;
9413;SDS011;4746;35.664;139.738;2024-03-02T10:34:03;1.30;;;1.20;;
9413;SDS011;4746;35.664;139.738;2024-03-02T10:36:40;1.40;;;1.30;;
9413;SDS011;4746;35.664;139.738;2024-03-02T10:39:14;2.37;;;1.37;;
9413;SDS011;4746;35.664;139.738;2024-03-02T10:41:43;2.47;;;1.40;;
9413;SDS011;4746;35.664;139.738;2024-03-02T10:44:16;1.40;;;1.30;;
9413;SDS011;4746;35.664;139.738;2024-03-02T10:46:45;1.30;;;1.20;;
9413;SDS011;4746;35.664;139.738;2024-03-02T10:49:16;3.60;;;1.40;;
9413;SDS011;4746;35.664;139.738;2024-03-02T10:51:47;1.10;;;1.00;;
9413;SDS011;4746;35.664;139.738;2024-03-02T10:54:17;1.17;;;1.07;;
9413;SDS011;4746;35.664;139.738;2024-03-02T10:56:51;1.97;;;1.20;;
9413;SDS011;4746;35.664;139.738;2024-03-02T10:59:28;2.60;;;1.50;;
9413;SDS011;4746;35.664;139.738;2024-03-02T11:02:01;1.83;;;1.20;;
9413;SDS011;4746;35.664;139.738;2024-03-02T11:04:34;2.50;;;1.67;;
9413;SDS011;4746;35.664;139.738;2024-03-02T11:07:07;1.93;;;1.30;;
9413;SDS011;4746;35.664;139.738;2024-03-02T11:09:40;3.33;;;1.60;;
9413;SDS011;4746;35.664;139.738;2024-03-02T11:12:23;2.70;;;1.43;;
9413;SDS011;4746;35.664;139.738;2024-03-02T11:15:10;1.60;;;1.50;;
9413;SDS011;4746;35.664;139.738;2024-03-02T11:17:47;1.30;;;1.20;;
9413;SDS011;4746;35.664;139.738;2024-03-02T11:20:17;1.80;;;1.70;;
9413;SDS011;4746;35.664;139.738;2024-03-02T11:22:46;1.50;;;1.40;;
9413;SDS011;4746;35.664;139.738;2024-03-02T11:25:25;1.70;;;1.60;;
9413;SDS011;4746;35.664;139.738;2024-03-02T11:31:05;2.50;;;1.20;;
9413;SDS011;4746;35.664;139.738;2024-03-02T11:33:15;1.40;;;1.30;;
9413;SDS011;4746;35.664;139.738;2024-03-02T11:35:53;2.63;;;1.50;;
9413;SDS011;4746;35.664;139.738;2024-03-02T11:38:22;1.13;;;1.13;;
9413;SDS011;4746;35.664;139.738;2024-03-02T11:40:56;1.57;;;1.47;;
9413;SDS011;4746;35.664;139.738;2024-03-02T11:43:27;1.97;;;1.87;;
9413;SDS011;4746;35.664;139.738;2024-03-02T11:46:01;1.40;;;1.30;;
9413;SDS011;4746;35.664;139.738;2024-03-02T11:48:36;3.37;;;1.53;;
9413;SDS011;4746;35.664;139.738;2024-03-02T11:51:06;2.07;;;1.53;;
9413;SDS011;4746;35.664;139.738;2024-03-02T11:53:34;1.70;;;1.60;;
9413;SDS011;4746;35.664;139.738;2024-03-02T11:56:06;1.93;;;1.60;;
9413;SDS011;4746;35.664;139.738;2024-03-02T11:58:38;1.90;;;1.80;;
9413;SDS011;4746;35.664;139.738;2024-03-02T12:01:08;1.83;;;1.73;;
9413;SDS011;4746;35.664;139.738;2024-03-02T12:03:39;1.87;;;1.60;;
9413;SDS011;4746;35.664;139.738;2024-03-02T12:06:07;2.23;;;1.83;;
9413;SDS011;4746;35.664;139.738;2024-03-02T12:08:41;2.13;;;1.80;;
9413;SDS011;4746;35.664;139.738;2024-03-02T12:11:20;1.63;;;1.53;;
9413;SDS011;4746;35.664;139.738;2024-03-02T12:13:52;1.63;;;1.53;;
9413;SDS011;4746;35.664;139.738;2024-03-02T12:16:25;2.87;;;1.50;;
9413;SDS011;4746;35.664;139.738;2024-03-02T12:18:54;3.47;;;1.40;;
9413;SDS011;4746;35.664;139.738;2024-03-02T12:21:24;1.53;;;1.43;;
9413;SDS011;4746;35.664;139.738;2024-03-02T12:23:56;1.80;;;1.33;;
9413;SDS011;4746;35.664;139.738;2024-03-02T12:26:26;3.57;;;1.80;;
9413;SDS011;4746;35.664;139.738;2024-03-02T12:28:56;2.13;;;1.60;;
9413;SDS011;4746;35.664;139.738;2024-03-02T12:31:26;1.90;;;1.60;;
9413;SDS011;4746;35.664;139.738;2024-03-02T12:33:54;1.23;;;1.13;;
9413;SDS011;4746;35.664;139.738;2024-03-02T12:36:23;2.23;;;1.60;;
9413;SDS011;4746;35.664;139.738;2024-03-02T12:38:55;1.57;;;1.47;;
9413;SDS011;4746;35.664;139.738;2024-03-02T12:41:28;4.30;;;1.83;;
9413;SDS011;4746;35.664;139.738;2024-03-02T12:44:00;2.03;;;1.70;;
9413;SDS011;4746;35.664;139.738;2024-03-02T12:46:37;2.40;;;1.77;;
9413;SDS011;4746;35.664;139.738;2024-03-02T12:49:09;1.73;;;1.63;;
9413;SDS011;4746;35.664;139.738;2024-03-02T12:51:42;4.00;;;1.70;;
9413;SDS011;4746;35.664;139.738;2024-03-02T12:54:18;1.43;;;1.33;;
9413;SDS011;4746;35.664;139.738;2024-03-02T12:56:50;1.30;;;1.30;;
9413;SDS011;4746;35.664;139.738;2024-03-02T12:59:23;2.27;;;1.93;;
9413;SDS011;4746;35.664;139.738;2024-03-02T13:01:55;3.27;;;2.13;;
9413;SDS011;4746;35.664;139.738;2024-03-02T13:04:25;1.67;;;1.57;;
9413;SDS011;4746;35.664;139.738;2024-03-02T13:06:56;1.80;;;1.47;;
9413;SDS011;4746;35.664;139.738;2024-03-02T13:09:28;1.73;;;1.63;;
9413;SDS011;4746;35.664;139.738;2024-03-02T13:11:59;2.00;;;1.70;;
9413;SDS011;4746;35.664;139.738;2024-03-02T13:14:32;1.70;;;1.60;;
9413;SDS011;4746;35.664;139.738;2024-03-02T13:17:01;2.00;;;1.77;;
9413;SDS011;4746;35.664;139.738;2024-03-02T13:19:31;1.80;;;1.60;;
9413;SDS011;4746;35.664;139.738;2024-03-02T13:22:00;1.77;;;1.67;;
9413;SDS011;4746;35.664;139.738;2024-03-02T13:24:32;2.63;;;2.00;;
9413;SDS011;4746;35.664;139.738;2024-03-02T13:27:02;3.43;;;1.97;;
9413;SDS011;4746;35.664;139.738;2024-03-02T13:29:34;1.73;;;1.60;;
9413;SDS011;4746;35.664;139.738;2024-03-02T13:32:04;3.33;;;2.10;;
9413;SDS011;4746;35.664;139.738;2024-03-02T13:34:37;2.17;;;2.07;;
9413;SDS011;4746;35.664;139.738;2024-03-02T13:37:06;1.90;;;1.80;;
9413;SDS011;4746;35.664;139.738;2024-03-02T13:39:35;1.50;;;1.40;;
9413;SDS011;4746;35.664;139.738;2024-03-02T13:42:08;1.90;;;1.80;;
9413;SDS011;4746;35.664;139.738;2024-03-02T13:44:40;2.50;;;1.57;;
9413;SDS011;4746;35.664;139.738;2024-03-02T13:47:14;1.90;;;1.60;;
9413;SDS011;4746;35.664;139.738;2024-03-02T13:49:43;1.80;;;1.70;;
9413;SDS011;4746;35.664;139.738;2024-03-02T13:52:14;2.17;;;1.70;;
9413;SDS011;4746;35.664;139.738;2024-03-02T13:54:47;2.00;;;1.90;;
9413;SDS011;4746;35.664;139.738;2024-03-02T13:57:18;2.00;;;1.70;;
9413;SDS011;4746;35.664;139.738;2024-03-02T13:59:47;2.13;;;1.90;;
9413;SDS011;4746;35.664;139.738;2024-03-02T14:02:17;2.87;;;1.80;;
9413;SDS011;4746;35.664;139.738;2024-03-02T14:04:46;2.27;;;1.80;;
9413;SDS011;4746;35.664;139.738;2024-03-02T14:07:17;2.00;;;1.77;;
9413;SDS011;4746;35.664;139.738;2024-03-02T14:09:46;2.33;;;1.83;;
9413;SDS011;4746;35.664;139.738;2024-03-02T14:12:15;1.93;;;1.63;;
9413;SDS011;4746;35.664;139.738;2024-03-02T14:14:44;1.70;;;1.60;;
9413;SDS011;4746;35.664;139.738;2024-03-02T14:17:13;1.47;;;1.37;;
9413;SDS011;4746;35.664;139.738;2024-03-02T14:19:42;3.03;;;1.67;;
9413;SDS011;4746;35.664;139.738;2024-03-02T14:22:11;2.33;;;1.90;;
9413;SDS011;4746;35.664;139.738;2024-03-02T14:24:43;3.27;;;2.63;;
9413;SDS011;4746;35.664;139.738;2024-03-02T14:27:12;1.50;;;1.40;;
9413;SDS011;4746;35.664;139.738;2024-03-02T14:29:45;2.00;;;1.77;;
9413;SDS011;4746;35.664;139.738;2024-03-02T14:32:15;2.03;;;1.60;;
9413;SDS011;4746;35.664;139.738;2024-03-02T14:34:44;3.00;;;1.97;;
9413;SDS011;4746;35.664;139.738;2024-03-02T14:37:13;1.80;;;1.70;;
9413;SDS011;4746;35.664;139.738;2024-03-02T14:39:45;2.30;;;1.83;;
9413;SDS011;4746;35.664;139.738;2024-03-02T14:42:18;2.00;;;1.70;;
9413;SDS011;4746;35.664;139.738;2024-03-02T14:44:47;2.10;;;1.90;;
9413;SDS011;4746;35.664;139.738;2024-03-02T14:47:15;2.53;;;2.20;;
9413;SDS011;4746;35.664;139.738;2024-03-02T14:49:44;3.07;;;1.57;;
9413;SDS011;4746;35.664;139.738;2024-03-02T14:52:13;1.30;;;1.20;;
9413;SDS011;4746;35.664;139.738;2024-03-02T14:54:44;2.30;;;1.67;;
9413;SDS011;4746;35.664;139.738;2024-03-02T14:57:13;3.07;;;1.50;;
9413;SDS011;4746;35.664;139.738;2024-03-02T14:59:42;1.20;;;1.20;;
9413;SDS011;4746;35.664;139.738;2024-03-02T15:02:10;1.47;;;1.37;;
9413;SDS011;4746;35.664;139.738;2024-03-02T15:04:39;1.63;;;1.53;;
9413;SDS011;4746;35.664;139.738;2024-03-02T15:07:10;1.53;;;1.43;;
9413;SDS011;4746;35.664;139.738;2024-03-02T15:09:39;1.53;;;1.40;;
9413;SDS011;4746;35.664;139.738;2024-03-02T15:12:08;1.63;;;1.53;;